Terminal Aerodrome Forecast
Issued by NWS Upton, NY

Home | Current Version | Previous Version | Text Only | Print | Product List | Glossary On
Versions: 1 2 3 4 5 6 7 8 9 10 11 12 13 14 15 16 17 18 19 20 21 22 23 24 25 26 27 28 29 30 31 32 33 34 35 36 37
000
FTUS41 KOKX 240833 AAA
TAFISP
TAF AMD
KISP 240833Z 2409/2506 04028G36KT 5SM -RA BR OVC012
     FM241300 03019G26KT 5SM -RA BR OVC007
     FM241900 36015KT 5SM -RA BR OVC008
     FM242200 33015G21KT 5SM -RA BR OVC012
     FM250500 31015KT P6SM SCT012 BKN030=

USA.gov is the U.S. government's official web portal to all federal, state and local government web resources and services.